createdAt,value
2023-04-21T00:01:32.110Z,22.73
2023-04-21T00:04:13.854Z,23.35
2023-04-21T00:06:47.153Z,29.95
2023-04-21T00:09:30.509Z,29.92
2023-04-21T00:12:10.769Z,29.27
2023-04-21T00:14:50.828Z,28.05
2023-04-21T00:17:26.491Z,28.77
2023-04-21T00:20:05.112Z,30.25
2023-04-21T00:22:42.772Z,32.90
2023-04-21T00:25:15.024Z,31.38
2023-04-21T00:27:52.110Z,33.30
2023-04-21T00:30:29.732Z,32.95
2023-04-21T00:33:06.599Z,32.80
2023-04-21T00:35:47.776Z,33.75
2023-04-21T00:38:28.026Z,32.58
2023-04-21T00:41:11.955Z,31.10
2023-04-21T00:44:08.210Z,30.38
2023-04-21T00:46:49.068Z,30.13
2023-04-21T00:49:21.078Z,33.13
2023-04-21T00:52:03.703Z,35.53
2023-04-21T00:54:42.550Z,34.33
2023-04-21T00:57:20.642Z,32.55
2023-04-21T00:59:55.950Z,27.35
2023-04-21T01:02:33.659Z,28.88
2023-04-21T01:05:12.558Z,28.67
2023-04-21T01:07:42.910Z,28.42
2023-04-21T01:10:17.018Z,26.23
2023-04-21T01:12:58.592Z,27.88
2023-04-21T01:15:31.484Z,25.05
2023-04-21T01:18:11.939Z,28.35
2023-04-21T01:20:50.082Z,28.67
2023-04-21T01:23:31.145Z,24.63
2023-04-21T01:26:08.875Z,27.70
2023-04-21T01:28:54.645Z,25.27
2023-04-21T01:31:30.821Z,29.48
2023-04-21T01:34:06.160Z,27.95
2023-04-21T01:36:46.586Z,28.27
2023-04-21T01:39:21.690Z,31.08
2023-04-21T01:41:59.858Z,28.80
2023-04-21T01:44:35.824Z,26.52
2023-04-21T01:47:11.703Z,29.27
2023-04-21T01:49:47.996Z,26.30
2023-04-21T01:52:21.148Z,25.85
2023-04-21T01:54:51.156Z,27.33
2023-04-21T01:57:23.522Z,25.10
2023-04-21T02:00:02.965Z,27.10
2023-04-21T02:02:38.826Z,25.65
2023-04-21T02:05:19.796Z,26.27
2023-04-21T02:07:58.046Z,25.48
2023-04-21T02:10:38.968Z,24.77
2023-04-21T02:13:13.952Z,24.67
2023-04-21T02:15:53.014Z,26.42
2023-04-21T02:18:35.289Z,27.40
2023-04-21T02:21:19.837Z,27.50
2023-04-21T02:23:54.729Z,25.33
2023-04-21T02:26:24.901Z,26.95
2023-04-21T02:28:59.473Z,26.73
2023-04-21T02:31:57.375Z,23.05
2023-04-21T02:34:44.428Z,25.25
2023-04-21T02:37:19.742Z,26.80
2023-04-21T02:40:00.808Z,25.27
2023-04-21T02:42:41.326Z,26.30
2023-04-21T02:45:21.129Z,26.20
2023-04-21T02:48:01.720Z,25.38
2023-04-21T02:50:40.144Z,24.08
2023-04-21T02:53:26.943Z,22.58
2023-04-21T02:56:04.735Z,23.20
2023-04-21T02:58:52.045Z,23.95
2023-04-21T03:01:30.298Z,24.65
2023-04-21T03:04:13.054Z,25.63
2023-04-21T03:06:56.685Z,27.95
2023-04-21T03:09:29.286Z,31.30
2023-04-21T03:12:05.513Z,30.95
2023-04-21T03:14:42.304Z,31.75
2023-04-21T03:17:19.558Z,31.27
2023-04-21T03:20:04.608Z,31.73
2023-04-21T03:22:39.211Z,34.65
2023-04-21T03:25:21.954Z,38.22
2023-04-21T03:28:02.543Z,35.50
2023-04-21T03:30:46.628Z,40.00
2023-04-21T03:33:27.864Z,30.58
2023-04-21T03:36:08.379Z,37.10
2023-04-21T03:38:54.016Z,30.85
2023-04-21T03:41:33.684Z,44.50
2023-04-21T03:44:12.958Z,46.03
2023-04-21T03:46:57.968Z,46.90
2023-04-21T03:49:36.742Z,46.90
2023-04-21T03:52:18.177Z,40.97
2023-04-21T03:55:03.156Z,34.92
2023-04-21T03:57:38.471Z,35.70
2023-04-21T04:00:23.300Z,34.83
2023-04-21T04:03:10.696Z,32.20
2023-04-21T04:05:48.784Z,32.60
2023-04-21T04:08:35.962Z,31.67
2023-04-21T04:11:08.419Z,33.85
2023-04-21T04:13:48.331Z,37.72
2023-04-21T04:16:29.248Z,47.50
2023-04-21T04:19:12.827Z,47.80
2023-04-21T04:21:55.127Z,48.63
2023-04-21T04:24:38.450Z,47.75
2023-04-21T04:27:20.568Z,47.13
2023-04-21T04:30:01.753Z,50.70
2023-04-21T04:32:47.417Z,50.10
2023-04-21T04:35:29.523Z,51.05
2023-04-21T04:38:14.919Z,53.72
2023-04-21T04:41:04.176Z,55.10
2023-04-21T04:43:44.982Z,59.20
2023-04-21T04:46:25.805Z,69.82
2023-04-21T04:49:04.001Z,69.00
2023-04-21T04:51:44.640Z,76.40
2023-04-21T04:54:24.823Z,80.63
2023-04-21T04:57:11.138Z,96.93
2023-04-21T04:59:48.869Z,104.05
2023-04-21T05:02:27.414Z,100.90
2023-04-21T05:05:05.087Z,95.18
2023-04-21T05:07:45.951Z,94.75
2023-04-21T05:10:32.830Z,89.70
2023-04-21T05:13:10.981Z,59.45
2023-04-21T05:15:46.836Z,47.65
2023-04-21T05:18:26.539Z,40.65
2023-04-21T05:21:07.562Z,35.97
2023-04-21T05:23:45.397Z,23.65
2023-04-21T05:26:21.492Z,19.23
2023-04-21T05:29:00.512Z,17.40
2023-04-21T05:31:35.011Z,13.88
2023-04-21T05:34:10.509Z,12.70
2023-04-21T05:36:49.107Z,11.50
2023-04-21T05:39:30.001Z,10.20
2023-04-21T05:42:08.004Z,10.05
2023-04-21T05:44:46.527Z,9.90
2023-04-21T05:47:27.339Z,10.15
2023-04-21T05:50:05.836Z,8.90
2023-04-21T05:52:44.170Z,8.43
2023-04-21T05:55:17.747Z,8.82
2023-04-21T05:57:56.075Z,8.00
2023-04-21T06:00:42.472Z,7.03
2023-04-21T06:03:20.359Z,7.53
2023-04-21T06:05:57.557Z,6.28
2023-04-21T06:08:36.283Z,6.57
2023-04-21T06:11:16.892Z,6.55
2023-04-21T06:13:56.588Z,6.25
2023-04-21T06:16:34.871Z,5.38
2023-04-21T06:19:18.082Z,4.78
2023-04-21T06:22:01.949Z,6.22
2023-04-21T06:24:40.866Z,6.03
2023-04-21T06:27:25.230Z,5.43
2023-04-21T06:30:00.618Z,5.22
2023-04-21T06:32:36.266Z,4.40
2023-04-21T06:35:19.009Z,4.90
2023-04-21T06:37:51.666Z,5.35
2023-04-21T06:40:29.643Z,4.65
2023-04-21T06:43:08.238Z,4.43
2023-04-21T06:45:41.393Z,4.20
2023-04-21T06:48:24.574Z,4.45
2023-04-21T06:51:02.720Z,4.30
2023-04-21T06:53:39.626Z,4.40
2023-04-21T06:56:19.827Z,4.43
2023-04-21T06:59:03.850Z,4.97
2023-04-21T07:04:24.212Z,4.50
2023-04-21T07:07:03.289Z,3.97
2023-04-21T07:09:38.729Z,5.35
2023-04-21T07:12:19.353Z,4.43
2023-04-21T07:14:55.060Z,4.30
2023-04-21T07:17:33.984Z,4.22
2023-04-21T07:20:09.936Z,5.07
2023-04-21T07:22:43.619Z,3.92
2023-04-21T07:25:19.518Z,4.60
2023-04-21T07:27:58.150Z,4.50
2023-04-21T07:30:34.061Z,3.95
2023-04-21T07:33:14.809Z,5.03
2023-04-21T07:35:53.036Z,4.20
2023-04-21T07:38:34.868Z,5.28
2023-04-21T07:41:12.851Z,4.43
2023-04-21T07:43:44.576Z,4.82
2023-04-21T07:46:26.018Z,4.20
2023-04-21T07:49:04.465Z,4.28
2023-04-21T07:51:42.704Z,4.90
2023-04-21T07:54:23.501Z,4.30
2023-04-21T07:57:02.173Z,4.45
2023-04-21T07:59:39.971Z,4.55
2023-04-21T08:02:15.606Z,4.45
2023-04-21T08:04:48.605Z,4.60
2023-04-21T08:07:30.186Z,4.63
2023-04-21T08:10:07.482Z,4.43
2023-04-21T08:12:48.050Z,5.65
2023-04-21T08:15:31.776Z,4.05
2023-04-21T08:18:12.517Z,5.03
2023-04-21T08:20:54.806Z,4.78
2023-04-21T08:23:35.497Z,5.32
2023-04-21T08:26:13.789Z,4.55
2023-04-21T08:28:48.822Z,5.07
2023-04-21T08:31:32.169Z,5.88
2023-04-21T08:34:10.223Z,5.55
2023-04-21T08:36:52.758Z,5.03
2023-04-21T08:39:41.489Z,5.22
2023-04-21T08:42:13.148Z,4.72
2023-04-21T08:44:51.497Z,5.03
2023-04-21T08:47:27.377Z,5.15
2023-04-21T08:50:00.234Z,4.32
2023-04-21T08:52:41.679Z,4.80
2023-04-21T08:55:15.709Z,4.93
2023-04-21T08:57:48.723Z,4.97
2023-04-21T09:00:26.890Z,4.88
2023-04-21T09:03:10.746Z,4.90
2023-04-21T09:06:07.973Z,4.60
2023-04-21T09:08:45.299Z,5.22
2023-04-21T09:11:32.915Z,5.70
2023-04-21T09:14:06.561Z,5.25
2023-04-21T09:17:02.881Z,4.70
2023-04-21T09:19:42.502Z,4.90
2023-04-21T09:22:20.734Z,5.20
2023-04-21T09:25:03.681Z,5.40
2023-04-21T09:27:47.866Z,5.80
2023-04-21T09:30:29.188Z,4.75
2023-04-21T09:33:20.255Z,5.40
2023-04-21T09:36:21.558Z,5.47
2023-04-21T09:39:38.218Z,5.05
2023-04-21T09:42:15.775Z,5.53
2023-04-21T09:44:58.147Z,5.15
2023-04-21T09:47:52.365Z,4.80
2023-04-21T09:50:54.228Z,4.93
2023-04-21T09:53:22.508Z,5.05
2023-04-21T09:56:02.692Z,5.13
2023-04-21T09:59:04.684Z,4.93
2023-04-21T10:01:39.268Z,5.03
2023-04-21T10:04:15.752Z,5.45
2023-04-21T10:06:49.878Z,5.03
2023-04-21T10:09:35.239Z,5.55
2023-04-21T10:12:14.507Z,4.97
2023-04-21T10:14:52.499Z,5.07
2023-04-21T10:17:32.239Z,4.68
2023-04-21T10:20:13.437Z,4.70
2023-04-21T10:22:46.445Z,5.22
2023-04-21T10:25:24.862Z,5.22
2023-04-21T10:28:05.667Z,4.97
2023-04-21T10:30:46.645Z,5.15
2023-04-21T10:33:23.877Z,4.72
2023-04-21T10:36:14.245Z,5.07
2023-04-21T10:38:50.388Z,5.03
2023-04-21T10:41:38.361Z,5.63
2023-04-21T10:44:19.897Z,4.70
2023-04-21T10:47:01.510Z,5.03
2023-04-21T10:49:42.427Z,5.13
2023-04-21T10:52:25.201Z,5.05
2023-04-21T10:55:13.493Z,5.00
2023-04-21T10:57:53.271Z,5.20
2023-04-21T11:00:34.427Z,4.72
2023-04-21T11:03:04.855Z,4.82
2023-04-21T11:05:40.719Z,4.78
2023-04-21T11:08:23.748Z,5.07
2023-04-21T11:11:07.916Z,4.90
2023-04-21T11:13:43.905Z,6.00
2023-04-21T11:16:22.806Z,5.45
2023-04-21T11:18:58.973Z,5.57
2023-04-21T11:21:33.252Z,4.70
2023-04-21T11:24:14.985Z,5.78
2023-04-21T11:26:51.216Z,5.03
2023-04-21T11:29:29.722Z,4.82
2023-04-21T11:32:06.549Z,5.47
2023-04-21T11:34:46.612Z,4.93
2023-04-21T11:37:38.424Z,5.18
2023-04-21T11:40:13.986Z,4.78
2023-04-21T11:42:49.646Z,4.80
2023-04-21T11:45:27.876Z,4.93
2023-04-21T11:48:23.734Z,5.55
2023-04-21T11:50:58.990Z,4.78
2023-04-21T11:53:36.986Z,5.65
2023-04-21T11:56:18.126Z,5.50
2023-04-21T11:59:00.362Z,4.72
2023-04-21T12:01:30.734Z,5.20
2023-04-21T12:04:09.032Z,4.88
2023-04-21T12:06:56.479Z,4.95
2023-04-21T12:09:30.917Z,5.00
2023-04-21T12:12:06.355Z,5.05
2023-04-21T12:14:43.578Z,5.13
2023-04-21T12:17:22.012Z,4.70
2023-04-21T12:20:06.788Z,5.00
2023-04-21T12:22:44.987Z,4.30
2023-04-21T12:25:18.996Z,5.57
2023-04-21T12:28:01.975Z,5.35
2023-04-21T12:30:41.738Z,5.13
2023-04-21T12:33:23.101Z,4.90
2023-04-21T12:36:11.742Z,5.78
2023-04-21T12:38:56.756Z,5.00
2023-04-21T12:41:31.640Z,4.93
2023-04-21T12:44:09.473Z,5.80
2023-04-21T12:46:51.351Z,5.03
2023-04-21T12:49:24.209Z,5.05
2023-04-21T12:52:05.533Z,5.27
2023-04-21T12:54:44.802Z,5.07
2023-04-21T12:57:15.751Z,5.18
2023-04-21T12:59:51.520Z,4.78
2023-04-21T13:02:27.257Z,5.05
2023-04-21T13:05:06.273Z,4.70
2023-04-21T13:07:54.099Z,4.57
2023-04-21T13:10:25.506Z,5.13
2023-04-21T13:13:02.366Z,4.68
2023-04-21T13:15:38.216Z,5.90
2023-04-21T13:18:10.799Z,4.60
2023-04-21T13:20:45.256Z,4.88
2023-04-21T13:23:19.723Z,4.53
2023-04-21T13:25:57.453Z,4.80
2023-04-21T13:28:41.497Z,5.10
2023-04-21T13:31:21.835Z,4.80
2023-04-21T13:33:56.597Z,5.50
2023-04-21T13:36:34.745Z,5.60
2023-04-21T13:39:16.853Z,4.32
2023-04-21T13:41:52.229Z,5.68
2023-04-21T13:44:26.607Z,4.70
2023-04-21T13:47:08.939Z,4.72
2023-04-21T13:49:52.158Z,5.20
2023-04-21T13:52:24.375Z,4.65
2023-04-21T13:54:57.514Z,4.53
2023-04-21T13:57:48.607Z,5.45
2023-04-21T14:00:24.499Z,5.10
2023-04-21T14:03:04.916Z,5.35
2023-04-21T14:05:45.509Z,4.82
2023-04-21T14:08:29.964Z,4.97
2023-04-21T14:10:59.582Z,4.65
2023-04-21T14:13:47.787Z,5.30
2023-04-21T14:16:29.409Z,5.13
2023-04-21T14:19:05.361Z,4.53
2023-04-21T14:21:41.536Z,5.05
2023-04-21T14:24:16.831Z,4.45
2023-04-21T14:26:58.859Z,4.90
2023-04-21T14:29:40.497Z,4.30
2023-04-21T14:32:23.612Z,4.65
2023-04-21T14:35:00.196Z,4.85
2023-04-21T14:37:33.322Z,4.40
2023-04-21T14:40:14.643Z,4.40
2023-04-21T14:42:49.534Z,4.97
2023-04-21T14:45:29.514Z,4.20
2023-04-21T14:48:14.228Z,4.53
2023-04-21T14:50:49.447Z,4.43
2023-04-21T14:53:30.376Z,4.22
2023-04-21T14:56:17.158Z,4.50
2023-04-21T14:58:51.705Z,5.25
2023-04-21T15:01:26.727Z,4.50
2023-04-21T15:04:05.158Z,4.40
2023-04-21T15:06:34.958Z,4.43
2023-04-21T15:09:16.009Z,4.40
2023-04-21T15:11:50.791Z,4.20
2023-04-21T15:14:34.793Z,4.20
2023-04-21T15:19:52.396Z,4.63
2023-04-21T15:22:34.410Z,5.00
2023-04-21T15:25:07.885Z,4.53
2023-04-21T15:27:43.075Z,4.38
2023-04-21T15:30:18.445Z,4.88
2023-04-21T15:32:53.935Z,4.68
2023-04-21T15:35:30.552Z,4.82
2023-04-21T15:38:06.621Z,4.68
2023-04-21T15:40:59.668Z,5.28
2023-04-21T15:43:38.788Z,4.50
2023-04-21T15:46:13.488Z,4.95
2023-04-21T15:48:46.648Z,4.53
2023-04-21T15:51:28.250Z,4.88
2023-04-21T15:54:04.614Z,4.47
2023-04-21T15:56:46.250Z,4.32
2023-04-21T15:59:19.499Z,5.20
2023-04-21T16:01:57.869Z,4.55
2023-04-21T16:04:36.035Z,4.28
2023-04-21T16:07:14.057Z,4.90
2023-04-21T16:09:48.647Z,4.40
2023-04-21T16:12:26.435Z,4.50
2023-04-21T16:15:20.258Z,4.53
2023-04-21T16:18:00.699Z,4.55
2023-04-21T16:20:39.724Z,4.40
2023-04-21T16:23:24.765Z,4.53
2023-04-21T16:26:02.069Z,4.18
2023-04-21T16:28:37.510Z,4.38
2023-04-21T16:31:25.577Z,5.38
2023-04-21T16:34:00.538Z,6.15
2023-04-21T16:36:33.381Z,5.22
2023-04-21T16:39:11.646Z,4.77
2023-04-21T16:41:41.604Z,4.57
2023-04-21T16:44:14.550Z,4.78
2023-04-21T16:46:54.733Z,7.00
2023-04-21T16:49:30.235Z,6.57
2023-04-21T16:52:11.429Z,6.70
2023-04-21T16:54:52.704Z,5.45
2023-04-21T16:57:30.475Z,4.60
2023-04-21T17:00:07.227Z,4.70
2023-04-21T17:02:48.746Z,6.13
2023-04-21T17:05:26.348Z,5.05
2023-04-21T17:08:04.544Z,5.97
2023-04-21T17:10:38.495Z,4.78
2023-04-21T17:13:16.189Z,4.45
2023-04-21T17:15:55.091Z,4.13
2023-04-21T17:18:32.380Z,4.82
2023-04-21T17:21:15.501Z,4.50
2023-04-21T17:23:54.511Z,4.93
2023-04-21T17:26:32.203Z,4.68
2023-04-21T17:29:11.187Z,4.80
2023-04-21T17:31:52.563Z,4.63
2023-04-21T17:34:38.537Z,4.95
2023-04-21T17:37:26.173Z,4.30
2023-04-21T17:40:12.951Z,4.60
2023-04-21T17:42:46.807Z,4.82
2023-04-21T17:45:25.461Z,5.10
2023-04-21T17:48:03.213Z,5.63
2023-04-21T17:50:36.066Z,7.30
2023-04-21T17:53:19.908Z,9.07
2023-04-21T17:56:00.677Z,7.60
2023-04-21T17:58:41.070Z,7.70
2023-04-21T18:01:25.772Z,7.03
2023-04-21T18:04:05.625Z,7.50
2023-04-21T18:06:41.332Z,6.68
2023-04-21T18:09:16.652Z,6.00
2023-04-21T18:11:52.461Z,6.65
2023-04-21T18:14:33.389Z,7.60
2023-04-21T18:17:11.542Z,8.43
2023-04-21T18:19:55.402Z,10.30
2023-04-21T18:22:30.818Z,11.07
2023-04-21T18:25:08.484Z,13.38
2023-04-21T18:27:44.922Z,12.85
2023-04-21T18:30:18.045Z,8.82
2023-04-21T18:33:03.702Z,8.25
2023-04-21T18:35:41.799Z,7.15
2023-04-21T18:38:16.655Z,8.00
2023-04-21T18:40:55.429Z,6.75
2023-04-21T18:43:34.768Z,6.40
2023-04-21T18:46:04.800Z,7.63
2023-04-21T18:48:44.974Z,6.55
2023-04-21T18:51:32.965Z,8.15
2023-04-21T18:54:12.343Z,7.32
2023-04-21T18:56:53.360Z,7.88
2023-04-21T18:59:31.464Z,9.93
2023-04-21T19:02:09.279Z,11.00
2023-04-21T19:04:50.695Z,10.27
2023-04-21T19:07:27.120Z,10.00
2023-04-21T19:12:44.644Z,10.15
2023-04-21T19:15:18.496Z,9.70
2023-04-21T19:18:00.142Z,8.98
2023-04-21T19:20:39.538Z,8.95
2023-04-21T19:23:14.399Z,8.95
2023-04-21T19:25:57.507Z,9.48
2023-04-21T19:28:32.037Z,9.75
2023-04-21T19:31:08.753Z,9.23
2023-04-21T19:33:48.196Z,9.68
2023-04-21T19:36:29.401Z,9.27
2023-04-21T19:39:10.342Z,9.55
2023-04-21T19:41:43.837Z,9.20
2023-04-21T19:44:23.376Z,9.35
2023-04-21T19:46:59.517Z,9.88
2023-04-21T19:49:43.172Z,9.35
2023-04-21T19:52:32.392Z,8.85
2023-04-21T19:55:05.471Z,8.15
2023-04-21T19:57:48.857Z,9.05
2023-04-21T20:00:34.465Z,9.45
2023-04-21T20:03:12.300Z,9.02
2023-04-21T20:05:49.750Z,9.30
2023-04-21T20:08:23.142Z,9.15
2023-04-21T20:11:08.914Z,10.77
2023-04-21T20:13:53.477Z,9.80
2023-04-21T20:16:28.536Z,10.32
2023-04-21T20:19:05.481Z,9.68
2023-04-21T20:21:44.153Z,10.20
2023-04-21T20:24:24.904Z,10.27
2023-04-21T20:27:02.401Z,10.48
2023-04-21T20:29:43.682Z,10.80
2023-04-21T20:32:22.550Z,11.15
2023-04-21T20:35:03.121Z,10.73
2023-04-21T20:37:38.381Z,11.55
2023-04-21T20:40:15.969Z,11.50
2023-04-21T20:43:06.489Z,11.98
2023-04-21T20:45:49.654Z,12.23
2023-04-21T20:48:28.879Z,11.73
2023-04-21T20:51:05.531Z,11.50
2023-04-21T20:53:43.395Z,12.70
2023-04-21T20:56:25.144Z,11.38
2023-04-21T20:58:55.125Z,12.15
2023-04-21T21:01:38.904Z,12.40
2023-04-21T21:04:16.609Z,14.10
2023-04-21T21:06:58.453Z,13.23
2023-04-21T21:09:41.648Z,14.38
2023-04-21T21:12:17.496Z,15.98
2023-04-21T21:14:52.987Z,15.10
2023-04-21T21:17:25.889Z,13.82
2023-04-21T21:19:58.886Z,13.52
2023-04-21T21:22:34.607Z,14.23
2023-04-21T21:25:15.061Z,14.57
2023-04-21T21:27:53.110Z,13.57
2023-04-21T21:30:28.464Z,14.50
2023-04-21T21:33:10.922Z,14.75
2023-04-21T21:35:43.073Z,13.85
2023-04-21T21:38:17.596Z,13.55
2023-04-21T21:40:55.359Z,15.30
2023-04-21T21:43:33.949Z,15.43
2023-04-21T21:46:07.593Z,14.23
2023-04-21T21:48:43.501Z,14.98
2023-04-21T21:51:21.144Z,13.05
2023-04-21T21:54:01.880Z,15.25
2023-04-21T21:56:40.113Z,13.60
2023-04-21T21:59:24.535Z,13.07
2023-04-21T22:02:02.316Z,15.73
2023-04-21T22:04:38.463Z,13.32
2023-04-21T22:07:16.492Z,14.55
2023-04-21T22:09:55.481Z,18.13
2023-04-21T22:12:33.581Z,18.92
2023-04-21T22:15:08.662Z,16.77
2023-04-21T22:17:49.427Z,20.05
2023-04-21T22:20:31.024Z,19.35
2023-04-21T22:23:07.828Z,16.70
2023-04-21T22:25:52.126Z,16.98
2023-04-21T22:28:30.375Z,16.00
2023-04-21T22:31:11.116Z,15.38
2023-04-21T22:33:52.436Z,15.23
2023-04-21T22:36:39.424Z,13.88
2023-04-21T22:39:12.709Z,13.88
2023-04-21T22:41:53.282Z,13.02
2023-04-21T22:44:31.432Z,14.93
2023-04-21T22:47:09.672Z,13.43
2023-04-21T22:49:48.085Z,12.25
2023-04-21T22:52:21.496Z,12.38
2023-04-21T22:54:59.249Z,13.35
2023-04-21T22:57:36.515Z,15.52
2023-04-21T23:00:17.042Z,14.27
2023-04-21T23:02:58.467Z,14.85
2023-04-21T23:05:38.667Z,16.17
2023-04-21T23:08:19.948Z,17.73
2023-04-21T23:11:06.529Z,16.33
2023-04-21T23:13:38.403Z,19.10
2023-04-21T23:16:11.575Z,18.95
2023-04-21T23:18:47.080Z,18.65
2023-04-21T23:21:20.776Z,20.67
2023-04-21T23:26:28.630Z,19.88
2023-04-21T23:29:06.808Z,18.95
2023-04-21T23:31:44.727Z,22.73
2023-04-21T23:34:17.061Z,20.30
2023-04-21T23:36:56.547Z,21.05
2023-04-21T23:39:50.530Z,23.45
2023-04-21T23:42:28.245Z,21.20
2023-04-21T23:45:05.142Z,22.02
2023-04-21T23:47:49.199Z,21.13
2023-04-21T23:50:24.698Z,22.13
2023-04-21T23:53:08.523Z,20.23
2023-04-21T23:55:46.275Z,18.65
2023-04-21T23:58:21.646Z,17.20
